Clipper Imabari — 3ERD7 — position and weather

sailwx.info

Track history (hours):
 
Tides and Currents Weather Stations Pressure Air Temp Water Temp Dewpoint Dewpoint Depression Visibility Wind Speed Wind Dir Waves Ship Positions

Clipper Imabari

Last reported at 2018-Feb-21 00:27 UTC. Time now 2018-Feb-22 20:24 UTC.
Position N 23°40' E 119°57'.

Length 169 m; draft 10 m.

Type: Cargo ship. MMSI: 370016000.

Date/timePositionNaut miles runAvg speedWind from/ knotsBaromVisibWave heightAir tempDewpointWater temp
2018-Feb-21 00:27N 23°40' E 119°57'511.3
2018-Feb-21 00:00N 23°35' E 119°56'611.4
2018-Feb-20 23:30N 23°29' E 119°56'611.2
2018-Feb-20 23:00N 23°24' E 119°56'910.9
2018-Feb-20 22:10N 23°14' E 119°55'210.9
2018-Feb-20 21:59N 23°13' E 119°55'610.8
2018-Feb-20 21:27N 23°07' E 119°55'810.7
2018-Feb-20 20:44N 22°59' E 119°55'310.4
2018-Feb-20 20:29N 22°56' E 119°55'4 9.6
2018-Feb-20 20:00N 22°52' E 119°55'5 9.4
2018-Feb-20 19:30N 22°47' E 119°54'510.1
2018-Feb-20 19:00N 22°42' E 119°54'711.5
2018-Feb-20 18:25N 22°36' E 119°54'512.1
2018-Feb-20 18:00N 22°30' E 119°54'612.2
2018-Feb-20 17:30N 22°24' E 119°54'611.9
2018-Feb-20 16:59N 22°18' E 119°54'911.2
2018-Feb-20 16:11N 22°09' E 119°53'  
2018-Feb-12 04:13S 20°19' E 116°45'412.9
2018-Feb-12 03:55S 20°23' E 116°44'512.0
2018-Feb-12 03:29S 20°28' E 116°43'612.0
2018-Feb-12 03:00S 20°34' E 116°42'  
Track history (hours):
 
Tides and Currents Weather Stations Pressure Air Temp Water Temp Dewpoint Dewpoint Depression Visibility Wind Speed Wind Dir Waves Ship Positions

Clipper Imabari

Last reported at 2018-Feb-21 00:27 UTC. Time now 2018-Feb-22 20:24 UTC.
Position N 23°40' E 119°57'.

Length 169 m; draft 10 m.

Type: Cargo ship. MMSI: 370016000.

Date/timePositionNaut miles runAvg speedWind from/ knotsBaromVisibWave heightAir tempDewpointWater temp
2018-Feb-21 00:27N 23°40' E 119°57'511.3
2018-Feb-21 00:00N 23°35' E 119°56'611.4
2018-Feb-20 23:30N 23°29' E 119°56'611.2
2018-Feb-20 23:00N 23°24' E 119°56'910.9
2018-Feb-20 22:10N 23°14' E 119°55'210.9
2018-Feb-20 21:59N 23°13' E 119°55'610.8
2018-Feb-20 21:27N 23°07' E 119°55'810.7
2018-Feb-20 20:44N 22°59' E 119°55'310.4
2018-Feb-20 20:29N 22°56' E 119°55'4 9.6
2018-Feb-20 20:00N 22°52' E 119°55'5 9.4
2018-Feb-20 19:30N 22°47' E 119°54'510.1
2018-Feb-20 19:00N 22°42' E 119°54'711.5
2018-Feb-20 18:25N 22°36' E 119°54'512.1
2018-Feb-20 18:00N 22°30' E 119°54'612.2
2018-Feb-20 17:30N 22°24' E 119°54'611.9
2018-Feb-20 16:59N 22°18' E 119°54'911.2
2018-Feb-20 16:11N 22°09' E 119°53'  
2018-Feb-12 04:13S 20°19' E 116°45'412.9
2018-Feb-12 03:55S 20°23' E 116°44'512.0
2018-Feb-12 03:29S 20°28' E 116°43'612.0
2018-Feb-12 03:00S 20°34' E 116°42'  

Dump ship's entire track history